createdAt,value
2022-11-07T00:00:21.253Z,6.82
2022-11-07T00:01:23.465Z,6.90
2022-11-07T00:02:25.703Z,6.70
2022-11-07T00:03:27.715Z,6.62
2022-11-07T00:04:31.060Z,6.68
2022-11-07T00:05:32.927Z,6.66
2022-11-07T00:06:34.772Z,6.75
2022-11-07T00:07:37.067Z,6.79
2022-11-07T00:08:39.160Z,6.70
2022-11-07T00:09:41.062Z,6.70
2022-11-07T00:10:43.375Z,6.68
2022-11-07T00:11:45.184Z,6.64
2022-11-07T00:12:47.012Z,6.79
2022-11-07T00:13:48.858Z,6.85
2022-11-07T00:14:50.907Z,6.97
2022-11-07T00:15:54.835Z,7.16
2022-11-07T00:16:59.374Z,7.17
2022-11-07T00:18:02.259Z,7.01
2022-11-07T00:19:04.224Z,6.73
2022-11-07T00:20:08.462Z,6.72
2022-11-07T00:21:10.513Z,6.60
2022-11-07T00:22:12.231Z,6.41
2022-11-07T00:23:14.265Z,6.32
2022-11-07T00:24:17.962Z,6.22
2022-11-07T00:25:19.914Z,6.11
2022-11-07T00:26:22.411Z,6.19
2022-11-07T00:27:24.519Z,6.15
2022-11-07T00:28:26.799Z,6.10
2022-11-07T00:29:28.597Z,6.05
2022-11-07T00:30:30.492Z,5.96
2022-11-07T00:31:32.633Z,5.94
2022-11-07T00:32:34.868Z,5.93
2022-11-07T00:33:36.771Z,5.94
2022-11-07T00:34:38.675Z,5.93
2022-11-07T00:35:41.605Z,5.95
2022-11-07T00:36:43.885Z,5.94
2022-11-07T00:37:45.676Z,5.89
2022-11-07T00:38:49.818Z,5.88
2022-11-07T00:39:51.792Z,5.98
2022-11-07T00:41:03.692Z,5.90
2022-11-07T00:42:05.647Z,5.87
2022-11-07T00:43:07.803Z,5.86
2022-11-07T00:44:10.198Z,5.86
2022-11-07T00:45:12.470Z,5.85
2022-11-07T00:46:15.659Z,5.91
2022-11-07T00:47:18.411Z,5.89
2022-11-07T00:48:20.915Z,5.94
2022-11-07T00:49:23.118Z,5.87
2022-11-07T00:50:25.114Z,5.91
2022-11-07T00:51:29.480Z,6.01
2022-11-07T00:52:31.311Z,6.05
2022-11-07T00:53:33.627Z,5.94
2022-11-07T00:54:35.321Z,5.94
2022-11-07T00:55:37.249Z,5.90
2022-11-07T00:56:38.986Z,5.94
2022-11-07T00:57:40.813Z,5.84
2022-11-07T00:58:43.522Z,5.89
2022-11-07T00:59:46.228Z,5.93
2022-11-07T01:00:48.102Z,5.88
2022-11-07T01:01:49.884Z,5.90
2022-11-07T01:02:53.325Z,5.89
2022-11-07T01:03:56.094Z,5.87
2022-11-07T01:04:57.901Z,5.81
2022-11-07T01:06:03.422Z,5.86
2022-11-07T01:07:05.900Z,5.84
2022-11-07T01:08:07.811Z,5.95
2022-11-07T01:09:12.774Z,5.90
2022-11-07T01:10:14.745Z,5.88
2022-11-07T01:11:17.838Z,5.94
2022-11-07T01:12:19.541Z,5.94
2022-11-07T01:13:22.551Z,5.95
2022-11-07T01:14:25.020Z,6.03
2022-11-07T01:15:26.968Z,6.06
2022-11-07T01:16:30.835Z,6.10
2022-11-07T01:17:32.824Z,6.12
2022-11-07T01:18:35.236Z,6.11
2022-11-07T01:19:38.382Z,6.14
2022-11-07T01:20:40.638Z,6.23
2022-11-07T01:21:43.054Z,6.37
2022-11-07T01:22:46.559Z,6.34
2022-11-07T01:23:49.625Z,6.31
2022-11-07T01:24:51.332Z,6.23
2022-11-07T01:25:54.196Z,6.24
2022-11-07T01:26:56.486Z,6.19
2022-11-07T01:27:58.566Z,6.21
2022-11-07T01:29:00.488Z,6.19
2022-11-07T01:30:03.224Z,6.13
2022-11-07T01:31:08.384Z,6.13
2022-11-07T01:32:11.294Z,6.09
2022-11-07T01:33:14.408Z,6.07
2022-11-07T01:34:18.045Z,6.12
2022-11-07T01:35:20.017Z,6.13
2022-11-07T01:36:21.915Z,6.16
2022-11-07T01:37:23.661Z,6.24
2022-11-07T01:38:25.925Z,6.18
2022-11-07T01:39:27.740Z,6.24
2022-11-07T01:40:32.493Z,6.16
2022-11-07T01:41:36.622Z,6.14
2022-11-07T01:42:38.652Z,6.03
2022-11-07T01:43:47.296Z,6.11
2022-11-07T01:44:53.817Z,6.12
2022-11-07T01:45:55.666Z,6.10
2022-11-07T01:47:00.506Z,6.15
2022-11-07T01:48:02.962Z,6.16
2022-11-07T01:49:27.892Z,6.08
2022-11-07T01:50:30.118Z,6.07
2022-11-07T01:51:36.098Z,6.02
2022-11-07T01:52:41.458Z,5.97
2022-11-07T01:53:44.616Z,6.01
2022-11-07T01:55:14.426Z,6.00
2022-11-07T01:56:20.472Z,6.07
2022-11-07T01:57:29.412Z,6.07
2022-11-07T01:58:31.542Z,6.04
2022-11-07T01:59:36.198Z,6.04
2022-11-07T02:00:38.613Z,6.05
2022-11-07T02:01:41.417Z,6.04
2022-11-07T02:02:46.669Z,6.09
2022-11-07T02:03:50.526Z,6.02
2022-11-07T02:04:55.155Z,6.08
2022-11-07T02:06:00.726Z,6.10
2022-11-07T02:07:06.322Z,6.05
2022-11-07T02:08:13.177Z,6.06
2022-11-07T02:09:15.474Z,6.02
2022-11-07T02:10:19.029Z,6.05
2022-11-07T02:11:21.885Z,6.07
2022-11-07T02:12:26.643Z,6.03
2022-11-07T02:13:30.954Z,5.99
2022-11-07T02:14:33.935Z,6.07
2022-11-07T02:15:36.557Z,5.94
2022-11-07T02:16:38.438Z,5.94
2022-11-07T02:17:40.570Z,5.91
2022-11-07T02:18:45.838Z,5.94
2022-11-07T02:19:52.385Z,5.94
2022-11-07T02:21:00.278Z,5.92
2022-11-07T02:22:08.927Z,5.89
2022-11-07T02:23:16.102Z,5.94
2022-11-07T02:24:30.896Z,5.98
2022-11-07T02:25:34.349Z,5.98
2022-11-07T02:26:38.984Z,5.94
2022-11-07T02:27:43.714Z,5.96
2022-11-07T02:28:47.985Z,5.99
2022-11-07T02:29:53.973Z,6.06
2022-11-07T02:30:55.899Z,6.02
2022-11-07T02:32:03.869Z,6.04
2022-11-07T02:33:18.961Z,5.97
2022-11-07T02:34:22.625Z,6.01
2022-11-07T02:35:37.649Z,5.95
2022-11-07T02:36:41.008Z,6.01
2022-11-07T02:37:42.992Z,6.09
2022-11-07T02:38:47.228Z,6.08
2022-11-07T02:39:50.180Z,6.10
2022-11-07T02:41:02.571Z,6.09
2022-11-07T02:42:05.388Z,6.10
2022-11-07T02:43:11.779Z,6.17
2022-11-07T02:44:14.244Z,6.15
2022-11-07T02:45:20.236Z,6.12
2022-11-07T02:46:23.824Z,6.16
2022-11-07T02:47:26.567Z,6.15
2022-11-07T02:48:30.068Z,6.14
2022-11-07T02:49:32.111Z,6.14
2022-11-07T02:50:34.227Z,6.12
2022-11-07T02:51:36.188Z,6.13
2022-11-07T02:52:38.521Z,6.06
2022-11-07T02:53:40.755Z,6.12
2022-11-07T02:54:44.185Z,6.15
2022-11-07T02:55:46.177Z,6.15
2022-11-07T02:56:48.158Z,6.19
2022-11-07T02:57:50.469Z,6.15
2022-11-07T02:58:52.875Z,6.25
2022-11-07T02:59:54.787Z,6.26
2022-11-07T03:00:57.233Z,6.22
2022-11-07T03:01:59.080Z,6.28
2022-11-07T03:03:01.598Z,6.28
2022-11-07T03:04:04.559Z,6.28
2022-11-07T03:05:07.490Z,6.33
2022-11-07T03:06:12.985Z,6.31
2022-11-07T03:07:15.486Z,6.32
2022-11-07T03:08:17.470Z,6.35
2022-11-07T03:09:19.309Z,6.41
2022-11-07T03:10:21.490Z,6.49
2022-11-07T03:11:24.607Z,6.44
2022-11-07T03:12:27.037Z,6.57
2022-11-07T03:13:30.183Z,6.49
2022-11-07T03:14:33.012Z,6.54
2022-11-07T03:15:34.878Z,6.55
2022-11-07T03:16:36.618Z,6.59
2022-11-07T03:17:38.875Z,6.55
2022-11-07T03:18:40.674Z,6.51
2022-11-07T03:19:43.477Z,6.52
2022-11-07T03:20:45.350Z,6.47
2022-11-07T03:21:50.177Z,6.51
2022-11-07T03:22:52.220Z,6.53
2022-11-07T03:23:54.437Z,6.55
2022-11-07T03:24:56.451Z,6.59
2022-11-07T03:25:58.693Z,6.52
2022-11-07T03:27:00.811Z,6.53
2022-11-07T03:28:07.481Z,6.60
2022-11-07T03:29:09.863Z,6.59
2022-11-07T03:30:12.210Z,6.47
2022-11-07T03:31:13.961Z,6.38
2022-11-07T03:32:15.798Z,6.44
2022-11-07T03:33:19.107Z,6.48
2022-11-07T03:34:20.938Z,6.48
2022-11-07T03:35:23.122Z,6.43
2022-11-07T03:36:25.193Z,6.41
2022-11-07T03:37:27.103Z,6.36
2022-11-07T03:38:29.031Z,6.43
2022-11-07T03:39:30.680Z,6.40
2022-11-07T03:40:32.517Z,6.45
2022-11-07T03:41:34.136Z,6.38
2022-11-07T03:42:41.410Z,6.35
2022-11-07T03:43:44.163Z,6.34
2022-11-07T03:44:46.070Z,6.31
2022-11-07T03:45:47.961Z,6.31
2022-11-07T03:46:49.917Z,6.31
2022-11-07T03:47:53.953Z,6.26
2022-11-07T03:48:55.799Z,6.20
2022-11-07T03:49:58.083Z,6.22
2022-11-07T03:51:00.555Z,6.18
2022-11-07T03:52:02.404Z,6.26
2022-11-07T03:53:04.054Z,6.28
2022-11-07T03:54:06.796Z,6.33
2022-11-07T03:55:09.293Z,6.31
2022-11-07T03:56:13.575Z,6.39
2022-11-07T03:57:15.529Z,6.34
2022-11-07T03:58:17.691Z,6.41
2022-11-07T03:59:19.589Z,6.39
2022-11-07T04:00:22.873Z,6.38
2022-11-07T04:01:24.795Z,6.41
2022-11-07T04:02:27.022Z,6.33
2022-11-07T04:03:29.410Z,6.39
2022-11-07T04:04:31.230Z,6.51
2022-11-07T06:32:05.432Z,6.39
2022-11-07T06:33:09.993Z,6.30
2022-11-07T06:34:12.550Z,6.31
2022-11-07T06:35:14.592Z,6.33
2022-11-07T06:36:25.122Z,6.31
2022-11-07T06:37:27.276Z,6.31
2022-11-07T06:38:29.384Z,6.41
2022-11-07T06:39:31.419Z,6.45
2022-11-07T06:40:37.261Z,6.49
2022-11-07T06:41:39.278Z,6.50
2022-11-07T06:42:41.493Z,6.58
2022-11-07T06:43:44.403Z,6.58
2022-11-07T06:44:46.391Z,6.58
2022-11-07T06:45:48.152Z,6.61
2022-11-07T06:46:52.684Z,6.60
2022-11-07T06:47:54.826Z,6.71
2022-11-07T06:48:57.777Z,6.66
2022-11-07T06:50:00.715Z,6.66
2022-11-07T06:51:04.108Z,6.67
2022-11-07T06:52:06.537Z,6.73
2022-11-07T06:53:11.599Z,6.72
2022-11-07T06:54:13.573Z,6.70
2022-11-07T06:55:15.473Z,6.75
2022-11-07T06:56:17.420Z,6.84
2022-11-07T06:57:19.281Z,6.81
2022-11-07T06:58:22.113Z,6.78
2022-11-07T06:59:24.297Z,6.78
2022-11-07T07:00:31.990Z,6.81
2022-11-07T07:01:35.144Z,6.81
2022-11-07T07:02:57.543Z,6.76
2022-11-07T07:03:42.568Z,6.74
2022-11-07T07:04:46.336Z,6.70
2022-11-07T07:05:48.644Z,6.76
2022-11-07T07:06:50.568Z,6.84
2022-11-07T07:07:54.363Z,6.97
2022-11-07T07:08:58.058Z,6.92
2022-11-07T07:10:00.478Z,6.86
2022-11-07T07:11:03.972Z,6.91
2022-11-07T07:12:08.656Z,6.86
2022-11-07T07:13:12.298Z,6.81
2022-11-07T07:14:14.412Z,6.77
2022-11-07T07:15:16.331Z,6.83
2022-11-07T07:16:19.342Z,6.78
2022-11-07T07:17:22.514Z,6.74
2022-11-07T07:18:28.204Z,6.73
2022-11-07T07:19:30.118Z,6.67
2022-11-07T07:20:33.888Z,6.66
2022-11-07T07:21:35.900Z,6.66
2022-11-07T07:22:37.651Z,6.65
2022-11-07T07:23:40.083Z,6.61
2022-11-07T07:24:42.323Z,6.67
2022-11-07T07:25:45.541Z,6.67
2022-11-07T07:26:48.492Z,6.71
2022-11-07T07:27:51.478Z,6.75
2022-11-07T07:28:53.463Z,6.81
2022-11-07T07:29:57.163Z,6.90
2022-11-07T07:31:18.692Z,6.92
2022-11-07T07:32:21.222Z,6.92
2022-11-07T07:33:23.299Z,6.96
2022-11-07T07:34:29.519Z,6.93
2022-11-07T07:35:32.773Z,6.86
2022-11-07T07:36:35.176Z,6.86
2022-11-07T07:37:37.458Z,6.88
2022-11-07T07:38:40.925Z,6.92
2022-11-07T07:39:43.222Z,6.99
2022-11-07T07:40:46.301Z,6.97
2022-11-07T07:41:48.519Z,7.01
2022-11-07T07:42:52.292Z,6.97
2022-11-07T07:43:55.059Z,6.99
2022-11-07T07:44:56.920Z,7.07
2022-11-07T07:45:59.993Z,7.10
2022-11-07T07:47:05.964Z,7.08
2022-11-07T07:48:07.751Z,6.96
2022-11-07T07:49:10.094Z,7.00
2022-11-07T07:50:12.908Z,6.90
2022-11-07T07:51:15.782Z,6.86
2022-11-07T07:52:17.660Z,6.86
2022-11-07T07:53:20.043Z,6.90
2022-11-07T07:54:21.857Z,6.90
2022-11-07T07:55:25.032Z,6.83
2022-11-07T07:56:28.250Z,6.82
2022-11-07T07:57:30.899Z,6.87
2022-11-07T07:58:33.169Z,6.94
2022-11-07T07:59:36.833Z,6.90
2022-11-07T08:00:40.178Z,6.95
2022-11-07T08:01:42.354Z,6.93
2022-11-07T08:02:45.100Z,7.00
2022-11-07T08:04:01.475Z,7.01
2022-11-07T08:04:54.863Z,7.19
2022-11-07T08:05:58.083Z,7.16
2022-11-07T08:06:59.945Z,7.22
2022-11-07T08:08:02.240Z,7.40
2022-11-07T08:09:04.434Z,7.44
2022-11-07T08:10:39.818Z,7.48
2022-11-07T08:11:16.015Z,7.51
2022-11-07T08:12:18.838Z,7.63
2022-11-07T08:13:25.044Z,7.63
2022-11-07T08:14:30.878Z,7.71
2022-11-07T08:15:32.888Z,7.76
2022-11-07T08:16:34.787Z,7.80
2022-11-07T08:17:36.991Z,7.85
2022-11-07T08:18:39.886Z,7.82
2022-11-07T08:19:41.733Z,7.91
2022-11-07T08:20:43.481Z,7.85
2022-11-07T08:21:47.382Z,7.89
2022-11-07T08:22:49.895Z,7.79
2022-11-07T08:23:56.221Z,7.84
2022-11-07T08:24:58.869Z,7.97
2022-11-07T08:26:01.315Z,7.91
2022-11-07T08:27:03.174Z,7.89
2022-11-07T08:28:06.532Z,7.85
2022-11-07T08:29:08.553Z,7.98
2022-11-07T08:30:17.553Z,7.92
2022-11-07T08:31:16.147Z,8.15
2022-11-07T08:32:18.011Z,8.11
2022-11-07T08:33:19.999Z,8.04
2022-11-07T08:34:22.477Z,8.19
2022-11-07T08:35:25.606Z,8.14
2022-11-07T08:36:28.388Z,8.04
2022-11-07T08:37:30.103Z,8.09
2022-11-07T08:38:36.378Z,8.16
2022-11-07T08:39:38.693Z,8.08
2022-11-07T08:40:41.098Z,8.08
2022-11-07T08:41:46.175Z,8.05
2022-11-07T08:42:50.684Z,8.04
2022-11-07T08:43:52.587Z,8.00
2022-11-07T08:44:55.211Z,8.07
2022-11-07T08:45:57.201Z,8.04
2022-11-07T08:47:04.426Z,7.98
2022-11-07T08:48:05.010Z,8.04
2022-11-07T08:49:09.319Z,8.00
2022-11-07T08:50:13.220Z,8.04
2022-11-07T08:51:15.444Z,8.08
2022-11-07T08:52:17.694Z,8.01
2022-11-07T08:53:20.341Z,8.15
2022-11-07T08:54:24.089Z,8.10
2022-11-07T08:55:26.160Z,8.18
2022-11-07T08:56:28.263Z,8.18
2022-11-07T08:57:30.336Z,8.33
2022-11-07T08:58:33.391Z,8.20
2022-11-07T08:59:36.813Z,8.15
2022-11-07T09:00:38.796Z,8.03
2022-11-07T09:02:15.093Z,8.08
2022-11-07T09:03:23.821Z,8.15
2022-11-07T09:03:57.597Z,8.08
2022-11-07T09:04:54.741Z,8.07
2022-11-07T09:05:58.683Z,8.09
2022-11-07T09:07:00.869Z,8.26
2022-11-07T09:08:03.803Z,8.28
2022-11-07T09:09:05.879Z,8.21
2022-11-07T09:10:11.102Z,8.14
2022-11-07T09:11:13.202Z,8.04
2022-11-07T09:12:16.238Z,8.11
2022-11-07T09:13:19.136Z,8.06
2022-11-07T09:14:21.623Z,8.14
2022-11-07T09:15:24.289Z,8.08
2022-11-07T09:16:26.758Z,8.13
2022-11-07T09:17:30.862Z,8.06
2022-11-07T09:18:33.201Z,8.09
2022-11-07T09:19:37.206Z,8.26
2022-11-07T09:20:39.800Z,8.21
2022-11-07T09:21:41.980Z,8.13
2022-11-07T09:22:43.748Z,8.06
2022-11-07T09:23:46.816Z,8.06
2022-11-07T09:24:48.697Z,8.05
2022-11-07T09:25:50.446Z,7.93
2022-11-07T09:26:53.388Z,7.82
2022-11-07T09:27:55.650Z,8.00
2022-11-07T09:29:01.041Z,7.84
2022-11-07T09:30:03.035Z,7.86
2022-11-07T09:31:05.602Z,7.93
2022-11-07T09:32:38.275Z,7.88
2022-11-07T09:33:13.720Z,7.86
2022-11-07T09:34:16.049Z,8.04
2022-11-07T09:35:18.770Z,8.10
2022-11-07T09:36:22.253Z,8.01
2022-11-07T09:37:25.316Z,8.09
2022-11-07T09:38:29.811Z,8.16
2022-11-07T09:39:32.073Z,8.07
2022-11-07T09:41:06.677Z,8.19
2022-11-07T09:42:15.420Z,8.15
2022-11-07T09:43:39.442Z,8.18
2022-11-07T09:45:02.167Z,8.17
2022-11-07T09:46:17.769Z,8.13
2022-11-07T09:47:29.190Z,8.29
2022-11-07T09:48:35.292Z,8.19
2022-11-07T09:49:40.400Z,8.31
2022-11-07T09:50:43.133Z,8.30
2022-11-07T09:53:21.325Z,8.34
2022-11-07T09:54:31.221Z,8.30
2022-11-07T09:55:45.604Z,8.09
2022-11-07T09:56:47.670Z,8.00
2022-11-07T09:57:53.267Z,7.95
2022-11-07T09:59:03.725Z,7.95
2022-11-07T10:00:19.291Z,7.64
2022-11-07T10:01:21.999Z,7.63
2022-11-07T10:02:27.279Z,7.60
2022-11-07T10:03:32.469Z,7.53
2022-11-07T10:04:36.363Z,7.39
2022-11-07T10:05:47.722Z,7.35
2022-11-07T10:07:03.672Z,7.31
2022-11-07T10:08:27.162Z,7.28
2022-11-07T10:09:33.156Z,7.31
2022-11-07T10:11:02.716Z,7.31
2022-11-07T10:12:25.352Z,7.23
2022-11-07T10:13:50.088Z,7.30
2022-11-07T10:15:18.203Z,7.32
2022-11-07T10:16:26.762Z,7.33
2022-11-07T10:17:41.436Z,8.00
2022-11-07T13:59:44.547Z,6.90
2022-11-07T14:00:48.136Z,6.76
2022-11-07T14:01:54.124Z,6.74
2022-11-07T14:02:58.017Z,6.73
2022-11-07T14:04:03.782Z,6.74
2022-11-07T14:05:17.708Z,6.80
2022-11-07T14:06:17.609Z,6.84
2022-11-07T14:07:26.117Z,6.77
2022-11-07T14:08:36.000Z,6.67
2022-11-07T14:09:40.496Z,6.70
2022-11-07T14:10:45.806Z,6.70
2022-11-07T14:11:51.209Z,6.75
2022-11-07T14:13:03.791Z,6.79
2022-11-07T14:14:07.862Z,6.72
2022-11-07T14:15:17.807Z,6.73
2022-11-07T14:16:25.803Z,6.73
2022-11-07T14:17:34.211Z,6.74
2022-11-07T14:18:43.007Z,6.71
2022-11-07T14:19:47.318Z,6.67
2022-11-07T14:20:52.280Z,6.69
2022-11-07T14:21:56.070Z,6.72
2022-11-07T14:23:00.013Z,6.68
2022-11-07T14:24:04.648Z,6.63
2022-11-07T14:25:22.445Z,6.62
2022-11-07T14:26:31.188Z,6.63
2022-11-07T14:27:34.667Z,6.66
2022-11-07T14:28:42.626Z,6.63
2022-11-07T14:29:55.943Z,6.65
2022-11-07T14:31:02.759Z,6.60
2022-11-07T14:32:06.510Z,6.70
2022-11-07T14:33:20.338Z,6.62
2022-11-07T14:34:22.376Z,6.62
2022-11-07T14:35:30.280Z,6.68
2022-11-07T14:36:34.659Z,6.54
2022-11-07T14:37:37.846Z,6.50
2022-11-07T14:38:53.341Z,6.54
2022-11-07T14:39:55.714Z,6.60
2022-11-07T14:41:01.951Z,6.58
2022-11-07T14:42:08.547Z,6.59
2022-11-07T14:43:16.834Z,6.62
2022-11-07T14:44:47.667Z,6.60
2022-11-07T14:46:44.989Z,6.58
2022-11-07T14:47:48.834Z,6.55
2022-11-07T14:48:54.459Z,6.58
2022-11-07T14:49:57.289Z,6.59
2022-11-07T14:51:02.539Z,6.64
2022-11-07T14:52:06.730Z,6.64
2022-11-07T14:53:13.608Z,6.68
2022-11-07T14:54:19.129Z,6.61
2022-11-07T14:55:33.933Z,6.60
2022-11-07T14:56:40.568Z,6.61
2022-11-07T14:57:43.932Z,6.54
2022-11-07T14:58:48.359Z,6.60
2022-11-07T14:59:51.590Z,6.58
2022-11-07T15:01:00.441Z,6.53
2022-11-07T15:02:09.513Z,6.48
2022-11-07T15:03:17.308Z,6.46
2022-11-07T15:04:31.660Z,6.42
2022-11-07T15:05:42.181Z,6.39
2022-11-07T15:06:45.071Z,6.37
2022-11-07T15:07:49.602Z,6.43
2022-11-07T15:08:58.050Z,6.42
2022-11-07T15:10:20.589Z,6.44
2022-11-07T15:11:31.968Z,6.50
2022-11-07T15:12:38.130Z,6.48
2022-11-07T15:13:42.053Z,6.50
2022-11-07T15:14:46.250Z,6.47
2022-11-07T15:16:00.859Z,6.48
2022-11-07T15:17:03.616Z,6.49
2022-11-07T15:18:06.747Z,6.47
2022-11-07T15:19:13.452Z,6.46
2022-11-07T15:20:32.041Z,6.45
2022-11-07T15:21:38.971Z,6.49
2022-11-07T15:22:40.911Z,6.44
2022-11-07T15:23:43.800Z,6.49
2022-11-07T15:24:46.828Z,6.47
2022-11-07T15:25:54.630Z,6.49
2022-11-07T15:27:06.200Z,6.47
2022-11-07T15:28:42.907Z,6.56
2022-11-07T15:29:54.189Z,6.51
2022-11-07T15:30:58.850Z,6.53
2022-11-07T15:32:16.979Z,6.51
2022-11-07T15:33:20.153Z,6.52
2022-11-07T15:34:38.996Z,6.50
2022-11-07T15:36:31.649Z,6.54
2022-11-07T15:37:33.490Z,6.51
2022-11-07T15:38:35.504Z,6.50
2022-11-07T15:39:37.821Z,6.52
2022-11-07T15:40:39.704Z,6.52
2022-11-07T15:41:42.025Z,6.56
2022-11-07T15:42:44.049Z,6.48
2022-11-07T15:43:45.762Z,6.45
2022-11-07T15:44:48.604Z,6.49
2022-11-07T15:45:52.674Z,6.48
2022-11-07T15:46:55.525Z,6.50
2022-11-07T15:47:57.665Z,6.47
2022-11-07T15:48:59.869Z,6.52
2022-11-07T15:50:02.173Z,6.54
2022-11-07T15:51:04.241Z,6.59
2022-11-07T15:52:05.940Z,6.62
2022-11-07T15:53:17.820Z,6.59
2022-11-07T15:54:19.840Z,6.53
2022-11-07T15:55:24.198Z,6.55
2022-11-07T15:56:27.294Z,6.53
2022-11-07T15:57:30.974Z,6.53
2022-11-07T15:58:34.178Z,6.53
2022-11-07T15:59:37.409Z,6.59
2022-11-07T16:00:40.215Z,6.55
2022-11-07T16:01:42.317Z,6.54
2022-11-07T16:02:45.276Z,6.52
2022-11-07T16:03:47.380Z,6.52
2022-11-07T16:04:49.634Z,6.52
2022-11-07T16:05:55.509Z,6.58
2022-11-07T16:06:57.868Z,6.58
2022-11-07T16:08:00.450Z,6.61
2022-11-07T16:09:04.165Z,6.53
2022-11-07T16:10:22.030Z,6.54
2022-11-07T16:11:24.519Z,6.54
2022-11-07T16:12:26.283Z,6.55
2022-11-07T16:13:28.742Z,6.58
2022-11-07T16:14:43.531Z,6.58
2022-11-07T16:15:34.431Z,6.57
2022-11-07T16:16:36.441Z,6.57
2022-11-07T16:17:38.163Z,6.64
2022-11-07T16:18:43.804Z,6.63
2022-11-07T16:19:45.915Z,6.67
2022-11-07T16:20:49.124Z,6.62
2022-11-07T16:21:51.623Z,6.62
2022-11-07T16:22:53.567Z,6.64
2022-11-07T16:23:56.241Z,6.67
2022-11-07T16:24:59.120Z,6.74
2022-11-07T16:26:01.043Z,6.71
2022-11-07T16:27:04.054Z,6.71
2022-11-07T16:28:08.557Z,6.71
2022-11-07T16:29:13.112Z,6.81
2022-11-07T16:30:15.848Z,6.73
2022-11-07T16:31:18.164Z,6.68
2022-11-07T16:32:20.161Z,6.71
2022-11-07T16:33:23.427Z,6.69
2022-11-07T16:34:26.458Z,6.64
2022-11-07T16:35:30.046Z,6.57
2022-11-07T16:36:34.890Z,6.57
2022-11-07T16:37:37.613Z,6.58
2022-11-07T16:38:39.556Z,6.60
2022-11-07T16:39:42.319Z,6.65
2022-11-07T16:40:44.767Z,6.63
2022-11-07T16:41:47.164Z,6.65
2022-11-07T16:42:48.869Z,6.68
2022-11-07T16:43:51.128Z,6.74
2022-11-07T16:44:53.491Z,6.75
2022-11-07T16:45:56.499Z,6.77
2022-11-07T16:46:59.177Z,6.71
2022-11-07T16:48:02.445Z,6.77
2022-11-07T16:49:17.263Z,6.81
2022-11-07T16:50:19.333Z,6.86
2022-11-07T16:51:22.838Z,6.88
2022-11-07T16:52:24.915Z,6.85
2022-11-07T16:53:27.116Z,6.85
2022-11-07T16:54:28.950Z,6.88
2022-11-07T16:55:31.692Z,6.90
2022-11-07T16:56:36.082Z,6.92
2022-11-07T16:57:39.229Z,6.90
2022-11-07T16:58:41.719Z,6.99
2022-11-07T16:59:45.088Z,6.91
2022-11-07T17:00:47.028Z,6.87
2022-11-07T17:01:50.780Z,6.90
2022-11-07T17:02:53.341Z,6.87
2022-11-07T17:03:56.412Z,6.83
2022-11-07T17:04:58.633Z,6.80
2022-11-07T17:06:03.129Z,6.93
2022-11-07T17:07:06.255Z,6.94
2022-11-07T17:09:33.420Z,7.26
2022-11-07T17:10:35.385Z,7.04
2022-11-07T17:11:38.117Z,7.06
2022-11-07T17:12:39.832Z,7.15
2022-11-07T17:13:41.565Z,7.10
2022-11-07T17:14:44.908Z,7.05
2022-11-07T17:15:47.380Z,7.04
2022-11-07T17:16:49.160Z,6.98
2022-11-07T17:17:56.438Z,6.92
2022-11-07T17:18:55.875Z,6.95
2022-11-07T17:19:58.694Z,6.97
2022-11-07T17:21:01.681Z,6.95
2022-11-07T17:22:05.336Z,7.03
2022-11-07T17:23:07.563Z,7.08
2022-11-07T17:24:10.862Z,7.06
2022-11-07T17:25:13.754Z,7.08
2022-11-07T17:26:19.260Z,7.15
2022-11-07T17:27:23.813Z,7.19
2022-11-07T17:28:25.956Z,7.20
2022-11-07T17:29:28.799Z,7.18
2022-11-07T17:30:30.899Z,7.04
2022-11-07T17:31:33.770Z,7.02
2022-11-07T17:32:35.634Z,7.03
2022-11-07T17:33:37.377Z,7.03
2022-11-07T17:34:39.101Z,7.00
2022-11-07T17:35:41.415Z,7.07
2022-11-07T17:36:49.939Z,7.04
2022-11-07T17:37:51.700Z,7.10
2022-11-07T17:38:54.059Z,7.02
2022-11-07T17:39:56.856Z,6.98
2022-11-07T17:40:58.737Z,6.88
2022-11-07T17:42:00.413Z,6.79
2022-11-07T17:43:02.682Z,6.78
2022-11-07T17:44:05.726Z,6.81
2022-11-07T17:45:10.008Z,6.76
2022-11-07T17:46:16.299Z,6.77
2022-11-07T17:47:30.065Z,6.79
2022-11-07T17:48:47.268Z,6.70
2022-11-07T17:49:52.711Z,6.73
2022-11-07T17:50:55.450Z,6.68
2022-11-07T17:52:03.794Z,6.69
2022-11-07T17:53:17.838Z,6.69
2022-11-07T17:54:24.113Z,6.71
2022-11-07T17:55:25.618Z,6.62
2022-11-07T17:56:30.994Z,6.64
2022-11-07T17:57:33.249Z,6.63
2022-11-07T17:58:35.192Z,6.58
2022-11-07T17:59:42.130Z,6.54
2022-11-07T18:00:41.572Z,6.54
2022-11-07T18:01:44.401Z,6.56
2022-11-07T18:02:49.354Z,6.50
2022-11-07T18:03:52.953Z,6.50
2022-11-07T18:04:56.991Z,6.54
2022-11-07T18:05:59.143Z,6.53
2022-11-07T18:07:01.051Z,6.46
2022-11-07T18:08:03.115Z,6.49
2022-11-07T18:09:07.064Z,6.45
2022-11-07T18:10:11.075Z,6.51
2022-11-07T18:11:13.118Z,6.49
2022-11-07T21:03:52.497Z,5.10
2022-11-07T21:05:16.653Z,5.11
2022-11-07T21:05:59.382Z,5.06
2022-11-07T21:07:02.004Z,5.15
2022-11-07T21:08:04.886Z,5.17
2022-11-07T21:09:07.586Z,5.22
2022-11-07T21:10:12.441Z,5.29
2022-11-07T21:11:15.072Z,5.51
2022-11-07T21:12:16.804Z,5.37
2022-11-07T21:13:19.420Z,5.22
2022-11-07T21:14:22.831Z,5.28
2022-11-07T21:15:24.600Z,5.25
2022-11-07T21:16:27.756Z,5.31
2022-11-07T21:17:29.632Z,5.33
2022-11-07T21:18:31.858Z,5.40
2022-11-07T21:19:36.046Z,5.47
2022-11-07T21:20:39.543Z,5.38
2022-11-07T21:21:42.399Z,5.41
2022-11-07T21:22:49.268Z,5.47
2022-11-07T21:23:54.020Z,5.45
2022-11-07T21:24:56.786Z,5.53
2022-11-07T21:26:01.943Z,5.42
2022-11-07T21:27:04.037Z,5.42
2022-11-07T21:28:06.501Z,5.47
2022-11-07T21:29:08.716Z,5.46
2022-11-07T21:30:11.206Z,5.44
2022-11-07T21:31:21.753Z,5.38
2022-11-07T21:32:24.251Z,5.47
2022-11-07T21:33:26.446Z,5.37
2022-11-07T21:34:28.279Z,5.40
2022-11-07T21:35:33.508Z,5.28
2022-11-07T21:36:34.480Z,5.43
2022-11-07T21:37:36.360Z,5.41
2022-11-07T21:38:38.696Z,5.49
2022-11-07T21:39:40.386Z,5.58
2022-11-07T21:40:43.273Z,5.36
2022-11-07T21:41:45.161Z,5.34
2022-11-07T21:42:47.024Z,5.36
2022-11-07T21:43:49.913Z,5.23
2022-11-07T21:44:51.890Z,5.23
2022-11-07T21:45:53.724Z,5.32
2022-11-07T21:46:57.395Z,5.21
2022-11-07T21:47:59.401Z,5.35
2022-11-07T21:49:01.799Z,5.51
2022-11-07T21:50:23.941Z,5.47
2022-11-07T21:51:19.049Z,5.37
2022-11-07T21:52:21.743Z,5.19
2022-11-07T21:53:24.540Z,5.19
2022-11-07T21:54:28.174Z,5.25
2022-11-07T21:55:30.259Z,5.19
2022-11-07T21:56:36.123Z,5.16
2022-11-07T21:57:38.794Z,5.06
2022-11-07T21:58:40.907Z,5.05
2022-11-07T21:59:43.263Z,5.05
2022-11-07T22:00:46.143Z,5.08
2022-11-07T22:01:48.199Z,5.14
2022-11-07T22:02:50.259Z,5.25
2022-11-07T22:04:06.230Z,5.15
2022-11-07T22:04:57.211Z,5.09
2022-11-07T22:06:03.190Z,5.14
2022-11-07T22:07:05.332Z,5.07
2022-11-07T22:08:07.254Z,5.00
2022-11-07T22:09:12.559Z,4.91
2022-11-07T22:10:15.027Z,4.92
2022-11-07T22:11:18.101Z,4.94
2022-11-07T22:12:22.327Z,5.03
2022-11-07T22:13:24.599Z,5.00
2022-11-07T22:14:26.419Z,4.95
2022-11-07T22:15:28.167Z,5.02
2022-11-07T22:16:31.273Z,5.10
2022-11-07T22:17:33.288Z,5.08
2022-11-07T22:18:36.266Z,5.08
2022-11-07T22:19:38.139Z,5.08
2022-11-07T22:20:39.984Z,5.14
2022-11-07T22:21:42.023Z,5.07
2022-11-07T22:22:44.245Z,5.12
2022-11-07T22:23:46.692Z,5.09
2022-11-07T22:24:48.466Z,5.04
2022-11-07T22:25:50.785Z,4.99
2022-11-07T22:26:56.135Z,4.99
2022-11-07T22:27:58.461Z,5.13
2022-11-07T22:29:00.232Z,5.09
2022-11-07T22:30:03.378Z,5.02
2022-11-07T22:31:11.333Z,5.16
2022-11-07T22:32:14.555Z,5.08
2022-11-07T22:33:16.659Z,5.09
2022-11-07T22:34:19.880Z,5.05
2022-11-07T22:35:22.878Z,4.90
2022-11-07T22:36:25.618Z,4.83
2022-11-07T22:37:27.520Z,4.75
2022-11-07T22:38:31.720Z,4.74
2022-11-07T22:39:33.942Z,4.72
2022-11-07T22:40:35.882Z,4.54
2022-11-07T22:41:37.812Z,4.44
2022-11-07T22:42:39.905Z,4.52
2022-11-07T22:43:42.130Z,4.37
2022-11-07T22:44:44.551Z,4.29
2022-11-07T22:45:47.618Z,4.20
2022-11-07T22:46:49.677Z,4.24
2022-11-07T22:47:51.589Z,4.28
2022-11-07T22:48:54.341Z,4.35
2022-11-07T22:49:56.326Z,4.59
2022-11-07T22:51:06.845Z,4.70
2022-11-07T22:52:08.687Z,4.60
2022-11-07T22:53:11.306Z,4.62
2022-11-07T22:54:13.316Z,4.76
2022-11-07T22:55:15.313Z,4.79
2022-11-07T22:56:18.821Z,4.86
2022-11-07T22:57:20.657Z,4.76
2022-11-07T22:58:22.396Z,4.73
2022-11-07T22:59:24.110Z,4.79
2022-11-07T23:00:25.942Z,4.83
2022-11-07T23:01:37.491Z,4.81
2022-11-07T23:02:39.586Z,4.62
2022-11-07T23:03:42.003Z,4.53
2022-11-07T23:04:43.909Z,4.44
2022-11-07T23:05:47.701Z,4.29
2022-11-07T23:06:49.784Z,4.22
2022-11-07T23:07:53.486Z,4.18
2022-11-07T23:08:58.367Z,4.18
2022-11-07T23:10:02.511Z,4.09
2022-11-07T23:11:43.425Z,4.10
2022-11-07T23:12:11.263Z,3.99
2022-11-07T23:13:12.991Z,3.95
2022-11-07T23:14:17.325Z,4.01
2022-11-07T23:15:19.485Z,4.05
2022-11-07T23:16:32.118Z,4.01
2022-11-07T23:17:31.373Z,4.00